AirNav   Advertisement
 
 789 users online  

MO31 Robert Jones Airport
Rogersville, Missouri, USA

GOING TO ROGERSVILLE?


FAA INFORMATION EFFECTIVE 20 JULY 2017

Location

FAA Identifier: MO31
Lat/Long: 37-03-00.0200N / 093-04-22.2800W
37-03.000333N / 093-04.371333W
37.0500056 / -93.0728556
(estimated)
Elevation: 1353 ft. / 412 m (estimated)
Variation: 04E (1985)
From city: 3 miles SW of ROGERSVILLE, MO
Time zone: UTC -5 (UTC -6 during Standard Time)
Zip code: 65742

Airport Operations

Airport use: Private use. Permission required prior to landing
Activation date: 11/1988
Control tower: no
ARTCC: KANSAS CITY CENTER
FSS: COLUMBIA FLIGHT SERVICE STATION
Attendance: UNATNDD
Segmented circle: no

Airport Communications

WX ASOS at SGF (19 nm NW): PHONE 417-863-6158

Nearby radio navigation aids

VOR radial/distance  VOR name  Freq  Var
DGDr279/9.5DOGWOOD VORTAC109.4001E
SGFr142/22.2SPRINGFIELD VORTAC116.9004E

 
NDB name  Hdg/Dist  Freq  Var  ID
LEBANON209/37.041403EIEB .. . -...

Airport Services

Runway Information

Runway 2/20

Dimensions: 1500 x 35 ft. / 457 x 11 m
Surface: turf
RUNWAY 2  RUNWAY 20
Latitude: 37-02.884500N37-03.116000N
Longitude: 093-04.425333W093-04.317167W
Elevation: 1340.0 ft.1353.0 ft.
Traffic pattern: leftleft

Airport Ownership and Management from official FAA records

Ownership: Privately-owned
Owner: SCOTT AND CAROL JONES
316 JONES LANDING
ROGERSVILLE, MO 65742
Phone 417-576-0062
Manager: SCOTT R. JONES
316 JONES LANDING
ROGERSVILLE, MO 65742
Phone 417-576-0062

Instrument Procedures

There are no published instrument procedures at MO31.

Some nearby airports with instrument procedures:

3DW - Downtown Airport (13 nm NW)
KSGF - Springfield-Branson National Airport (19 nm NW)
KAOV - Ava Bill Martin Memorial Airport (19 nm E)
KFWB - Branson West Municipal Airport - Emerson Field (26 nm SW)
KPLK - M Graham Clark Downtown Airport (27 nm S)
 
Loc | Ops | Rwys | IFR | FBO | Links
Com | Nav | Svcs | Stats | Notes

Kansas City Aviation Department
 
Area around MO31 (Robert Jones Airport)
 
Road maps at: MapQuest Bing Google
 
Aerial photo
No photo
 
Sectional chart

 
Airport distance calculator
Flying to Robert Jones Airport? Find the distance to fly.

From to MO31

Sunrise and sunset
Times for 27-Jul-2017
 Local
(UTC-5)
 Zulu
(UTC)
Morning civil twilight05:4510:45
Sunrise06:1411:14
Sunset20:2301:23
Evening civil twilight20:5201:52

Current date and time
Zulu (UTC)  28-Jul-2017 03:34:22
Local (UTC-5)  27-Jul-2017 22:34:22
 
METAR
KSGF 
18nm NW 
280319Z 00000KT 10SM SCT010 BKN017 OVC038 26/24 A2994 RMK AO2 LTG DSNT SE RAB0255E14 P0001 T02610244
KFWB 
26nm SW 
280315Z AUTO 00000KT 10SM SCT080 BKN110 25/25 A2995 RMK AO2 LTG DSNT NE AND SE
KBBG 
32nm S 
280315Z AUTO 15004KT 8SM BKN070 OVC085 25/25 A2995 RMK AO2
TAF
KSGF 
18nm NW 
271720Z 2718/2818 22008KT P6SM SCT050 OVC100 FM272200 27010KT P6SM VCTS BKN050CB FM280300 01006KT P6SM BKN035 OVC110 FM280900 01010KT P6SM SCT007 BKN015 OVC025
NOTAMs
Click for the latest NOTAMs
NOTAMs are issued by the DoD/FAA and will open in a separate window not controlled by AirNav.

 

 
 

Would you like to see your business listed on this page?

 If your business provides an interesting product or service to pilots, flight crews, aircraft, or users of the Robert Jones Airport, you should consider listing it here.  To start the listing process, click on the button below
 
Add a business
 

Other Pages about Robert Jones Airport

Update a link
 
Copyright © AirNav, LLC. All rights reserved. Privacy Policy  Contact